• Join FlightAware (Why Join?)
  • Login
  • US Flag 
02:58PM EDT


 

Airport Tracker/Info


-or-


 

Live Flight TrackerFlight Track Log ✈ SWA417 ✈ 01-May-2013 ✈ KLAS - KRNO

Flight Track Log - Related Links

Times and Time Zones

All times are in EDT time to prevent confusion due to time zone crossing. See the SWA417 flight status page for this flight to view local times or setup timezone preferences in your user account.

Time Position Orientation Groundspeed Altitude Reporting Facility
EDT Latitude Longitude Course Direction KTS MPH feet Rate Location/Type
03:29PM 36.1011 -115.1547 302° West 144 166 2,900  Level Los Angeles Center
03:30PM 36.1206 -115.1936 302° West 209 241 4,600 1,920 Climbing Los Angeles Center
03:31PM 36.1172 -115.2153 259° West 217 250 5,700 2,580 Climbing Los Angeles Center
03:31PM 36.1028 -115.2817 255° West 265 305 7,500 3,360 Climbing Los Angeles Center
03:32PM 36.0794 -115.3033 217° Southwest 256 295 9,200 2,400 Climbing Los Angeles Center
03:33PM 35.9992 -115.3458 203° Southwest 291 335 11,100 1,500 Climbing Los Angeles Center
03:34PM 35.9086 -115.3983 205° Southwest 329 379 12,600 2,400 Climbing Los Angeles Center
03:35PM 35.8881 -115.5475 260° West 359 413 16,700 3,360 Climbing Los Angeles Center
03:36PM 35.8911 -115.6869 272° West 369 425 19,700 2,700 Climbing Los Angeles Center
03:37PM 35.9444 -115.7978 301° West 383 441 22,300 2,400 Climbing Los Angeles Center
03:38PM 36.0142 -115.9025 309° West 391 450 24,700 2,160 Climbing Los Angeles Center
03:39PM 36.0861 -116.0119 309° West 405 466 26,800 1,980 Climbing Los Angeles Center
03:40PM 36.1597 -116.1236 309° West 413 475 28,900 2,400 Climbing Los Angeles Center
03:41PM 36.2411 -116.2478 309° West 416 479 31,900 1,440 Climbing Los Angeles Center
03:42PM 36.3114 -116.3533 310° West 404 465 32,000  Climbing Los Angeles Center
03:43PM 36.3803 -116.4600 309° West 399 459 32,000  Level Los Angeles Center
03:44PM 36.4508 -116.5678 309° West 402 463 32,000  Level Los Angeles Center
03:46PM 36.5200 -116.6764 308° West 402 463 32,000  Level Los Angeles Center
03:47PM 36.6078 -116.7808 316° Northwest 406 467 32,000  Level Los Angeles Center
03:48PM 36.7031 -116.8511 329° Northwest 399 459 32,000  Level Los Angeles Center
03:49PM 36.8172 -116.9394 328° Northwest 400 460 32,000  Level Los Angeles Center
03:50PM 36.9114 -117.0106 329° Northwest 399 459 32,000  Level Los Angeles Center
03:51PM 37.0064 -117.0836 328° Northwest 400 460 32,000  Level Los Angeles Center
03:52PM 37.1200 -117.1731 328° Northwest 401 461 32,000  Level Oakland Center
03:53PM 37.2169 -117.2433 330° Northwest 402 463 32,000  Level Oakland Center
03:54PM 37.3164 -117.3097 332° Northwest 403 464 32,000  Level Oakland Center
03:55PM 37.4158 -117.3761 332° Northwest 403 464 32,000  Level Oakland Center
03:56PM 37.5142 -117.4414 332° Northwest 399 459 32,000  Level Oakland Center
03:57PM 37.6131 -117.5072 332° Northwest 399 459 32,000  Level Oakland Center
03:58PM 37.7111 -117.5725 332° Northwest 397 457 32,000  Level Oakland Center
03:59PM 37.8089 -117.6394 332° Northwest 397 457 32,000  Level Oakland Center
04:00PM 37.9069 -117.7044 332° Northwest 394 453 32,000  Level Oakland Center
04:01PM 38.0211 -117.7892 330° Northwest 394 453 32,000  Level Oakland Center
04:02PM 38.1006 -117.8853 316° Northwest 392 451 32,000  Level Oakland Center
04:03PM 38.1800 -117.9808 317° Northwest 392 451 32,000  Level Oakland Center
04:04PM 38.2597 -118.0761 317° Northwest 393 452 32,000 -60 Level Oakland Center
04:05PM 38.3292 -118.1611 316° Northwest 393 452 31,900 -660 Descending Oakland Center
04:06PM 38.4247 -118.2778 316° Northwest 397 457 30,700 -1,140 Descending Oakland Center
04:07PM 38.5050 -118.3750 317° Northwest 397 457 29,700 -1,080 Descending Oakland Center
04:08PM 38.5836 -118.4725 316° Northwest 393 452 28,600 -840 Descending Oakland Center
04:09PM 38.6614 -118.5681 316° Northwest 387 445 28,000 -720 Descending Oakland Center
04:10PM 38.7394 -118.6625 317° Northwest 385 443 27,200 -960 Descending Oakland Center
04:11PM 38.8158 -118.7581 316° Northwest 382 440 26,100 -1,080 Descending Oakland Center
04:12PM 38.8919 -118.8528 316° Northwest 381 438 25,100 -1,020 Descending Oakland Center
04:13PM 38.9681 -118.9472 316° Northwest 378 435 24,100 -1,020 Descending Oakland Center
04:14PM 39.0431 -119.0389 317° Northwest 373 429 23,100 -1,080 Descending Oakland Center
04:15PM 39.1153 -119.1308 315° West 364 419 21,900 -1,560 Descending Oakland Center
04:16PM 39.1861 -119.2197 316° Northwest 356 410 20,000 -1,860 Descending Oakland Center
04:17PM 39.2528 -119.3036 316° Northwest 338 389 18,100 -2,400 Descending Oakland Center
04:18PM 39.3325 -119.4047 316° Northwest 334 384 15,200 -2,940 Descending Oakland Center
04:19PM 39.3994 -119.4906 315° West 337 388 12,200 -2,460 Descending Oakland Center
04:21PM 39.4653 -119.5719 316° Northwest 333 383 10,200 -1,500 Descending Oakland Center
04:22PM 39.5247 -119.6428 317° Northwest 313 360 9,200 -720 Descending Oakland Center
04:22PM 39.5667 -119.6833 323° Northwest 213 245 9,000 -960 Descending Northern Cal TRACON
04:23PM 39.6000 -119.7167 322° Northwest 178 205 7,700 -1,560 Descending Northern Cal TRACON
04:24PM 39.5833 -119.7667 247° West 170 196 6,100 -1,260 Descending Northern Cal TRACON
04:25PM 39.5500 -119.7667 180° South 153 176 5,200 -900 Descending Northern Cal TRACON
04:27PM 39.4991 -119.7681 237° Southwest  Level Estimated
04:34PM 39.4991 -119.7681 237° Southwest  Level Estimated
04:35PM 39.4991 -119.7681 237° Southwest  Level Estimated